sensor_id;sensor_type;location;lat;lon;timestamp;P1;durP1;ratioP1;P2;durP2;ratioP2
12623;SDS011;6377;42.836;23.998;2023-05-08T00:01:58;10.10;;;7.47;;
12623;SDS011;6377;42.836;23.998;2023-05-08T00:04:26;9.33;;;7.30;;
12623;SDS011;6377;42.836;23.998;2023-05-08T00:06:54;9.60;;;7.33;;
12623;SDS011;6377;42.836;23.998;2023-05-08T00:09:21;8.87;;;7.03;;
12623;SDS011;6377;42.836;23.998;2023-05-08T00:11:49;9.50;;;7.73;;
12623;SDS011;6377;42.836;23.998;2023-05-08T00:14:16;9.07;;;7.20;;
12623;SDS011;6377;42.836;23.998;2023-05-08T00:16:43;10.70;;;7.13;;
12623;SDS011;6377;42.836;23.998;2023-05-08T00:19:10;8.73;;;6.77;;
12623;SDS011;6377;42.836;23.998;2023-05-08T00:21:37;12.50;;;7.10;;
12623;SDS011;6377;42.836;23.998;2023-05-08T00:24:06;10.23;;;7.43;;
12623;SDS011;6377;42.836;23.998;2023-05-08T00:26:33;7.40;;;6.60;;
12623;SDS011;6377;42.836;23.998;2023-05-08T00:29:00;8.77;;;6.50;;
12623;SDS011;6377;42.836;23.998;2023-05-08T00:31:28;6.97;;;6.27;;
12623;SDS011;6377;42.836;23.998;2023-05-08T00:33:55;6.90;;;6.20;;
12623;SDS011;6377;42.836;23.998;2023-05-08T00:36:22;8.70;;;6.37;;
12623;SDS011;6377;42.836;23.998;2023-05-08T00:38:50;7.30;;;6.30;;
12623;SDS011;6377;42.836;23.998;2023-05-08T00:41:18;9.80;;;6.73;;
12623;SDS011;6377;42.836;23.998;2023-05-08T00:43:46;8.17;;;6.90;;
12623;SDS011;6377;42.836;23.998;2023-05-08T00:46:13;9.47;;;6.87;;
12623;SDS011;6377;42.836;23.998;2023-05-08T00:48:40;7.27;;;6.13;;
12623;SDS011;6377;42.836;23.998;2023-05-08T00:51:08;11.07;;;6.43;;
12623;SDS011;6377;42.836;23.998;2023-05-08T00:53:37;7.43;;;6.60;;
12623;SDS011;6377;42.836;23.998;2023-05-08T00:56:07;7.83;;;6.47;;
12623;SDS011;6377;42.836;23.998;2023-05-08T00:58:38;7.57;;;6.40;;
12623;SDS011;6377;42.836;23.998;2023-05-08T01:01:06;8.13;;;6.50;;
12623;SDS011;6377;42.836;23.998;2023-05-08T01:03:34;7.03;;;6.07;;
12623;SDS011;6377;42.836;23.998;2023-05-08T01:06:02;8.63;;;6.60;;
12623;SDS011;6377;42.836;23.998;2023-05-08T01:08:30;9.27;;;6.23;;
12623;SDS011;6377;42.836;23.998;2023-05-08T01:11:00;8.90;;;6.73;;
12623;SDS011;6377;42.836;23.998;2023-05-08T01:13:36;7.97;;;6.27;;
12623;SDS011;6377;42.836;23.998;2023-05-08T01:16:16;7.90;;;6.63;;
12623;SDS011;6377;42.836;23.998;2023-05-08T01:18:49;8.27;;;6.40;;
12623;SDS011;6377;42.836;23.998;2023-05-08T01:21:23;7.43;;;6.33;;
12623;SDS011;6377;42.836;23.998;2023-05-08T01:24:12;7.47;;;6.37;;
12623;SDS011;6377;42.836;23.998;2023-05-08T01:27:15;8.43;;;6.60;;
12623;SDS011;6377;42.836;23.998;2023-05-08T01:30:22;8.73;;;6.83;;
12623;SDS011;6377;42.836;23.998;2023-05-08T01:33:12;7.40;;;6.40;;
12623;SDS011;6377;42.836;23.998;2023-05-08T01:35:46;9.03;;;6.63;;
12623;SDS011;6377;42.836;23.998;2023-05-08T01:38:18;7.70;;;6.90;;
12623;SDS011;6377;42.836;23.998;2023-05-08T01:40:52;7.47;;;6.60;;
12623;SDS011;6377;42.836;23.998;2023-05-08T01:43:24;11.27;;;8.40;;
12623;SDS011;6377;42.836;23.998;2023-05-08T01:45:56;10.67;;;8.83;;
12623;SDS011;6377;42.836;23.998;2023-05-08T01:48:27;10.67;;;8.30;;
12623;SDS011;6377;42.836;23.998;2023-05-08T01:50:59;9.07;;;7.47;;
12623;SDS011;6377;42.836;23.998;2023-05-08T01:53:32;9.73;;;7.63;;
12623;SDS011;6377;42.836;23.998;2023-05-08T01:56:04;10.13;;;7.90;;
12623;SDS011;6377;42.836;23.998;2023-05-08T01:58:36;12.33;;;8.33;;
12623;SDS011;6377;42.836;23.998;2023-05-08T02:01:04;11.07;;;8.07;;
12623;SDS011;6377;42.836;23.998;2023-05-08T02:03:33;9.40;;;7.73;;
12623;SDS011;6377;42.836;23.998;2023-05-08T02:06:03;9.37;;;8.37;;
12623;SDS011;6377;42.836;23.998;2023-05-08T02:08:32;9.00;;;7.40;;
12623;SDS011;6377;42.836;23.998;2023-05-08T02:11:00;9.33;;;7.57;;
12623;SDS011;6377;42.836;23.998;2023-05-08T02:13:29;10.00;;;7.13;;
12623;SDS011;6377;42.836;23.998;2023-05-08T02:15:58;8.70;;;6.97;;
12623;SDS011;6377;42.836;23.998;2023-05-08T02:18:27;9.83;;;7.17;;
12623;SDS011;6377;42.836;23.998;2023-05-08T02:20:59;8.97;;;7.40;;
12623;SDS011;6377;42.836;23.998;2023-05-08T02:23:30;7.87;;;6.60;;
12623;SDS011;6377;42.836;23.998;2023-05-08T02:26:00;9.13;;;6.90;;
12623;SDS011;6377;42.836;23.998;2023-05-08T02:28:29;7.50;;;6.50;;
12623;SDS011;6377;42.836;23.998;2023-05-08T02:30:58;8.23;;;6.80;;
12623;SDS011;6377;42.836;23.998;2023-05-08T02:33:26;8.23;;;6.47;;
12623;SDS011;6377;42.836;23.998;2023-05-08T02:35:55;11.87;;;8.00;;
12623;SDS011;6377;42.836;23.998;2023-05-08T02:38:25;13.07;;;9.20;;
12623;SDS011;6377;42.836;23.998;2023-05-08T02:40:54;19.07;;;9.77;;
12623;SDS011;6377;42.836;23.998;2023-05-08T02:43:26;11.80;;;8.23;;
12623;SDS011;6377;42.836;23.998;2023-05-08T02:45:56;10.73;;;8.30;;
12623;SDS011;6377;42.836;23.998;2023-05-08T02:48:32;9.53;;;7.43;;
12623;SDS011;6377;42.836;23.998;2023-05-08T02:51:04;9.17;;;7.60;;
12623;SDS011;6377;42.836;23.998;2023-05-08T02:53:45;8.77;;;7.20;;
12623;SDS011;6377;42.836;23.998;2023-05-08T02:56:17;9.63;;;7.40;;
12623;SDS011;6377;42.836;23.998;2023-05-08T02:58:54;9.27;;;7.60;;
12623;SDS011;6377;42.836;23.998;2023-05-08T03:01:27;11.57;;;8.83;;
12623;SDS011;6377;42.836;23.998;2023-05-08T03:04:00;10.83;;;8.00;;
12623;SDS011;6377;42.836;23.998;2023-05-08T03:06:34;12.40;;;8.87;;
12623;SDS011;6377;42.836;23.998;2023-05-08T03:09:06;12.00;;;10.40;;
12623;SDS011;6377;42.836;23.998;2023-05-08T03:11:39;12.27;;;9.93;;
12623;SDS011;6377;42.836;23.998;2023-05-08T03:14:10;9.40;;;8.13;;
12623;SDS011;6377;42.836;23.998;2023-05-08T03:16:40;11.67;;;8.67;;
12623;SDS011;6377;42.836;23.998;2023-05-08T03:19:13;11.27;;;8.70;;
12623;SDS011;6377;42.836;23.998;2023-05-08T03:21:46;12.07;;;8.27;;
12623;SDS011;6377;42.836;23.998;2023-05-08T03:24:18;9.10;;;6.97;;
12623;SDS011;6377;42.836;23.998;2023-05-08T03:26:47;10.70;;;6.77;;
12623;SDS011;6377;42.836;23.998;2023-05-08T03:29:15;7.37;;;6.03;;
12623;SDS011;6377;42.836;23.998;2023-05-08T03:31:44;7.40;;;6.47;;
12623;SDS011;6377;42.836;23.998;2023-05-08T03:34:12;7.93;;;6.20;;
12623;SDS011;6377;42.836;23.998;2023-05-08T03:36:41;6.60;;;5.90;;
12623;SDS011;6377;42.836;23.998;2023-05-08T03:39:08;6.87;;;6.17;;
12623;SDS011;6377;42.836;23.998;2023-05-08T03:41:37;7.00;;;6.17;;
12623;SDS011;6377;42.836;23.998;2023-05-08T03:44:04;7.97;;;6.90;;
12623;SDS011;6377;42.836;23.998;2023-05-08T03:46:33;8.47;;;7.57;;
12623;SDS011;6377;42.836;23.998;2023-05-08T03:49:03;8.90;;;7.43;;
12623;SDS011;6377;42.836;23.998;2023-05-08T03:51:35;8.20;;;6.97;;
12623;SDS011;6377;42.836;23.998;2023-05-08T03:54:04;11.43;;;8.00;;
12623;SDS011;6377;42.836;23.998;2023-05-08T03:56:32;9.97;;;7.73;;
12623;SDS011;6377;42.836;23.998;2023-05-08T03:59:03;11.33;;;8.13;;
12623;SDS011;6377;42.836;23.998;2023-05-08T04:01:43;11.00;;;9.23;;
12623;SDS011;6377;42.836;23.998;2023-05-08T04:04:16;13.87;;;10.43;;
12623;SDS011;6377;42.836;23.998;2023-05-08T04:06:49;12.47;;;11.03;;
12623;SDS011;6377;42.836;23.998;2023-05-08T04:09:23;15.23;;;10.43;;
12623;SDS011;6377;42.836;23.998;2023-05-08T04:11:59;14.40;;;10.30;;
12623;SDS011;6377;42.836;23.998;2023-05-08T04:14:32;13.20;;;10.33;;
12623;SDS011;6377;42.836;23.998;2023-05-08T04:17:04;12.90;;;10.63;;
12623;SDS011;6377;42.836;23.998;2023-05-08T04:19:37;10.83;;;9.37;;
12623;SDS011;6377;42.836;23.998;2023-05-08T04:22:08;10.60;;;6.90;;
12623;SDS011;6377;42.836;23.998;2023-05-08T04:24:39;9.97;;;7.07;;
12623;SDS011;6377;42.836;23.998;2023-05-08T04:27:09;9.77;;;7.87;;
12623;SDS011;6377;42.836;23.998;2023-05-08T04:29:40;9.93;;;7.73;;
12623;SDS011;6377;42.836;23.998;2023-05-08T04:32:07;10.93;;;7.60;;
12623;SDS011;6377;42.836;23.998;2023-05-08T04:34:35;8.87;;;7.73;;
12623;SDS011;6377;42.836;23.998;2023-05-08T04:37:05;9.83;;;8.27;;
12623;SDS011;6377;42.836;23.998;2023-05-08T04:39:32;8.37;;;7.40;;
12623;SDS011;6377;42.836;23.998;2023-05-08T04:41:59;10.47;;;8.73;;
12623;SDS011;6377;42.836;23.998;2023-05-08T04:44:27;12.40;;;8.73;;
12623;SDS011;6377;42.836;23.998;2023-05-08T04:46:56;10.83;;;9.43;;
12623;SDS011;6377;42.836;23.998;2023-05-08T04:49:23;10.43;;;8.43;;
12623;SDS011;6377;42.836;23.998;2023-05-08T04:51:50;12.43;;;8.43;;
12623;SDS011;6377;42.836;23.998;2023-05-08T04:54:17;9.07;;;7.77;;
12623;SDS011;6377;42.836;23.998;2023-05-08T04:56:44;10.07;;;8.47;;
12623;SDS011;6377;42.836;23.998;2023-05-08T04:59:12;10.30;;;8.53;;
12623;SDS011;6377;42.836;23.998;2023-05-08T05:01:39;11.10;;;8.97;;
12623;SDS011;6377;42.836;23.998;2023-05-08T05:04:07;12.07;;;9.13;;
12623;SDS011;6377;42.836;23.998;2023-05-08T05:06:34;13.33;;;10.00;;
12623;SDS011;6377;42.836;23.998;2023-05-08T05:09:02;13.47;;;9.50;;
12623;SDS011;6377;42.836;23.998;2023-05-08T05:11:29;11.97;;;9.53;;
12623;SDS011;6377;42.836;23.998;2023-05-08T05:13:56;12.97;;;9.17;;
12623;SDS011;6377;42.836;23.998;2023-05-08T05:16:23;16.07;;;9.77;;
12623;SDS011;6377;42.836;23.998;2023-05-08T05:18:51;13.40;;;10.07;;
12623;SDS011;6377;42.836;23.998;2023-05-08T05:21:20;10.60;;;9.50;;
12623;SDS011;6377;42.836;23.998;2023-05-08T05:23:47;13.53;;;10.33;;
12623;SDS011;6377;42.836;23.998;2023-05-08T05:26:14;14.53;;;10.67;;
12623;SDS011;6377;42.836;23.998;2023-05-08T05:28:41;13.47;;;10.40;;
12623;SDS011;6377;42.836;23.998;2023-05-08T05:31:08;12.93;;;10.07;;
12623;SDS011;6377;42.836;23.998;2023-05-08T05:33:36;13.33;;;10.50;;
12623;SDS011;6377;42.836;23.998;2023-05-08T05:36:03;16.17;;;11.53;;
12623;SDS011;6377;42.836;23.998;2023-05-08T05:38:33;12.33;;;10.90;;
12623;SDS011;6377;42.836;23.998;2023-05-08T05:41:00;12.27;;;10.87;;
12623;SDS011;6377;42.836;23.998;2023-05-08T05:43:28;13.63;;;10.67;;
12623;SDS011;6377;42.836;23.998;2023-05-08T05:45:55;14.40;;;10.57;;
12623;SDS011;6377;42.836;23.998;2023-05-08T05:48:28;14.73;;;10.67;;
12623;SDS011;6377;42.836;23.998;2023-05-08T05:50:56;15.33;;;11.63;;
12623;SDS011;6377;42.836;23.998;2023-05-08T05:53:23;17.30;;;12.93;;
12623;SDS011;6377;42.836;23.998;2023-05-08T05:55:52;15.43;;;10.17;;
12623;SDS011;6377;42.836;23.998;2023-05-08T05:58:19;16.43;;;10.50;;
12623;SDS011;6377;42.836;23.998;2023-05-08T06:00:47;14.83;;;9.93;;
12623;SDS011;6377;42.836;23.998;2023-05-08T06:03:14;12.93;;;9.87;;
12623;SDS011;6377;42.836;23.998;2023-05-08T06:05:41;14.73;;;8.93;;
12623;SDS011;6377;42.836;23.998;2023-05-08T06:08:09;10.97;;;8.57;;
12623;SDS011;6377;42.836;23.998;2023-05-08T06:10:36;10.80;;;8.33;;
12623;SDS011;6377;42.836;23.998;2023-05-08T06:13:04;8.47;;;7.00;;
12623;SDS011;6377;42.836;23.998;2023-05-08T06:15:33;10.27;;;7.60;;
12623;SDS011;6377;42.836;23.998;2023-05-08T06:18:00;8.53;;;6.70;;
12623;SDS011;6377;42.836;23.998;2023-05-08T06:20:27;11.93;;;10.07;;
12623;SDS011;6377;42.836;23.998;2023-05-08T06:22:54;11.13;;;9.63;;
12623;SDS011;6377;42.836;23.998;2023-05-08T06:25:22;11.53;;;8.97;;
12623;SDS011;6377;42.836;23.998;2023-05-08T06:27:49;15.37;;;9.77;;
12623;SDS011;6377;42.836;23.998;2023-05-08T06:30:18;10.30;;;8.40;;
12623;SDS011;6377;42.836;23.998;2023-05-08T06:32:45;10.10;;;8.47;;
12623;SDS011;6377;42.836;23.998;2023-05-08T06:35:12;9.90;;;8.00;;
12623;SDS011;6377;42.836;23.998;2023-05-08T06:37:42;5.80;;;5.20;;
12623;SDS011;6377;42.836;23.998;2023-05-08T06:40:10;7.63;;;5.67;;
12623;SDS011;6377;42.836;23.998;2023-05-08T06:42:38;6.80;;;5.50;;
12623;SDS011;6377;42.836;23.998;2023-05-08T06:45:06;6.10;;;5.47;;
12623;SDS011;6377;42.836;23.998;2023-05-08T06:47:36;10.50;;;6.70;;
12623;SDS011;6377;42.836;23.998;2023-05-08T06:50:04;7.53;;;5.60;;
12623;SDS011;6377;42.836;23.998;2023-05-08T06:52:31;6.10;;;4.60;;
12623;SDS011;6377;42.836;23.998;2023-05-08T06:54:59;15.37;;;7.80;;
12623;SDS011;6377;42.836;23.998;2023-05-08T06:57:26;9.13;;;7.50;;
12623;SDS011;6377;42.836;23.998;2023-05-08T06:59:54;6.07;;;4.50;;
12623;SDS011;6377;42.836;23.998;2023-05-08T07:02:21;5.40;;;4.90;;
12623;SDS011;6377;42.836;23.998;2023-05-08T07:04:50;8.23;;;4.83;;
12623;SDS011;6377;42.836;23.998;2023-05-08T07:07:17;7.80;;;5.37;;
12623;SDS011;6377;42.836;23.998;2023-05-08T07:09:44;8.60;;;5.87;;
12623;SDS011;6377;42.836;23.998;2023-05-08T07:12:12;8.47;;;5.50;;
12623;SDS011;6377;42.836;23.998;2023-05-08T07:14:41;7.72;;;5.80;;
12623;SDS011;6377;42.836;23.998;2023-05-08T07:17:08;5.57;;;4.00;;
12623;SDS011;6377;42.836;23.998;2023-05-08T07:19:35;4.80;;;4.20;;
12623;SDS011;6377;42.836;23.998;2023-05-08T07:22:04;7.73;;;5.10;;
12623;SDS011;6377;42.836;23.998;2023-05-08T07:24:31;4.30;;;3.73;;
12623;SDS011;6377;42.836;23.998;2023-05-08T07:26:59;5.50;;;4.07;;
12623;SDS011;6377;42.836;23.998;2023-05-08T07:29:26;9.03;;;6.67;;
12623;SDS011;6377;42.836;23.998;2023-05-08T07:31:53;8.52;;;6.22;;
12623;SDS011;6377;42.836;23.998;2023-05-08T07:34:20;4.32;;;3.92;;
12623;SDS011;6377;42.836;23.998;2023-05-08T07:36:48;8.37;;;5.27;;
12623;SDS011;6377;42.836;23.998;2023-05-08T07:39:16;6.80;;;5.40;;
12623;SDS011;6377;42.836;23.998;2023-05-08T07:41:43;5.85;;;5.00;;
12623;SDS011;6377;42.836;23.998;2023-05-08T07:44:11;4.35;;;3.92;;
12623;SDS011;6377;42.836;23.998;2023-05-08T07:46:38;4.65;;;3.85;;
12623;SDS011;6377;42.836;23.998;2023-05-08T07:49:05;13.23;;;8.48;;
12623;SDS011;6377;42.836;23.998;2023-05-08T07:51:32;8.23;;;6.35;;
12623;SDS011;6377;42.836;23.998;2023-05-08T07:54:00;6.88;;;5.28;;
12623;SDS011;6377;42.836;23.998;2023-05-08T07:56:28;5.03;;;4.53;;
12623;SDS011;6377;42.836;23.998;2023-05-08T07:58:55;5.22;;;4.03;;
12623;SDS011;6377;42.836;23.998;2023-05-08T08:01:22;4.45;;;3.50;;
12623;SDS011;6377;42.836;23.998;2023-05-08T08:03:50;7.22;;;3.50;;
12623;SDS011;6377;42.836;23.998;2023-05-08T08:06:18;3.90;;;2.90;;
12623;SDS011;6377;42.836;23.998;2023-05-08T08:08:45;3.92;;;3.13;;
12623;SDS011;6377;42.836;23.998;2023-05-08T08:11:12;4.18;;;3.38;;
12623;SDS011;6377;42.836;23.998;2023-05-08T08:13:41;5.03;;;3.55;;
12623;SDS011;6377;42.836;23.998;2023-05-08T08:16:08;3.92;;;3.60;;
12623;SDS011;6377;42.836;23.998;2023-05-08T08:18:35;4.30;;;3.58;;
12623;SDS011;6377;42.836;23.998;2023-05-08T08:21:06;5.07;;;3.80;;
12623;SDS011;6377;42.836;23.998;2023-05-08T08:23:33;3.53;;;3.20;;
12623;SDS011;6377;42.836;23.998;2023-05-08T08:26:00;3.55;;;3.25;;
12623;SDS011;6377;42.836;23.998;2023-05-08T08:28:28;3.90;;;3.50;;
12623;SDS011;6377;42.836;23.998;2023-05-08T08:30:57;4.10;;;3.35;;
12623;SDS011;6377;42.836;23.998;2023-05-08T08:33:26;5.13;;;3.40;;
12623;SDS011;6377;42.836;23.998;2023-05-08T08:35:53;5.57;;;3.45;;
12623;SDS011;6377;42.836;23.998;2023-05-08T08:38:20;4.88;;;3.80;;
12623;SDS011;6377;42.836;23.998;2023-05-08T08:40:47;4.65;;;3.47;;
12623;SDS011;6377;42.836;23.998;2023-05-08T08:43:14;5.53;;;4.55;;
12623;SDS011;6377;42.836;23.998;2023-05-08T08:45:41;5.43;;;3.58;;
12623;SDS011;6377;42.836;23.998;2023-05-08T08:48:10;5.10;;;3.83;;
12623;SDS011;6377;42.836;23.998;2023-05-08T08:50:41;5.10;;;3.25;;
12623;SDS011;6377;42.836;23.998;2023-05-08T08:53:14;8.05;;;3.72;;
12623;SDS011;6377;42.836;23.998;2023-05-08T08:55:47;4.75;;;3.50;;
12623;SDS011;6377;42.836;23.998;2023-05-08T08:58:20;5.90;;;3.70;;
12623;SDS011;6377;42.836;23.998;2023-05-08T09:00:52;3.60;;;3.30;;
12623;SDS011;6377;42.836;23.998;2023-05-08T09:03:22;3.50;;;3.20;;
12623;SDS011;6377;42.836;23.998;2023-05-08T09:05:49;5.45;;;3.50;;
12623;SDS011;6377;42.836;23.998;2023-05-08T09:08:17;4.45;;;3.80;;
12623;SDS011;6377;42.836;23.998;2023-05-08T09:10:44;5.22;;;4.35;;
12623;SDS011;6377;42.836;23.998;2023-05-08T09:13:12;5.88;;;4.25;;
12623;SDS011;6377;42.836;23.998;2023-05-08T09:15:39;4.45;;;3.47;;
12623;SDS011;6377;42.836;23.998;2023-05-08T09:18:06;5.25;;;3.70;;
12623;SDS011;6377;42.836;23.998;2023-05-08T09:20:35;5.18;;;3.78;;
12623;SDS011;6377;42.836;23.998;2023-05-08T09:23:02;5.30;;;3.72;;
12623;SDS011;6377;42.836;23.998;2023-05-08T09:25:42;6.93;;;6.22;;
12623;SDS011;6377;42.836;23.998;2023-05-08T09:28:19;5.68;;;4.60;;
12623;SDS011;6377;42.836;23.998;2023-05-08T09:30:48;6.03;;;3.78;;
12623;SDS011;6377;42.836;23.998;2023-05-08T09:33:16;6.18;;;4.70;;
12623;SDS011;6377;42.836;23.998;2023-05-08T09:35:45;5.55;;;3.97;;
12623;SDS011;6377;42.836;23.998;2023-05-08T09:41:09;6.28;;;4.10;;
12623;SDS011;6377;42.836;23.998;2023-05-08T09:43:38;7.05;;;4.00;;
12623;SDS011;6377;42.836;23.998;2023-05-08T09:46:21;8.57;;;6.70;;
12623;SDS011;6377;42.836;23.998;2023-05-08T09:48:49;4.97;;;4.30;;
12623;SDS011;6377;42.836;23.998;2023-05-08T09:51:19;4.25;;;3.83;;
12623;SDS011;6377;42.836;23.998;2023-05-08T09:53:46;6.20;;;4.00;;
12623;SDS011;6377;42.836;23.998;2023-05-08T09:56:27;6.07;;;4.75;;
12623;SDS011;6377;42.836;23.998;2023-05-08T09:58:58;5.40;;;4.20;;
12623;SDS011;6377;42.836;23.998;2023-05-08T10:01:28;5.68;;;4.15;;
12623;SDS011;6377;42.836;23.998;2023-05-08T10:03:56;4.95;;;4.45;;
12623;SDS011;6377;42.836;23.998;2023-05-08T10:06:25;4.82;;;3.67;;
12623;SDS011;6377;42.836;23.998;2023-05-08T10:09:09;4.97;;;4.35;;
12623;SDS011;6377;42.836;23.998;2023-05-08T10:11:37;5.63;;;4.57;;
12623;SDS011;6377;42.836;23.998;2023-05-08T10:14:05;4.80;;;4.30;;
12623;SDS011;6377;42.836;23.998;2023-05-08T10:16:35;8.03;;;4.97;;
12623;SDS011;6377;42.836;23.998;2023-05-08T10:19:11;6.10;;;4.60;;
12623;SDS011;6377;42.836;23.998;2023-05-08T10:21:42;4.78;;;4.28;;
12623;SDS011;6377;42.836;23.998;2023-05-08T10:24:12;8.40;;;5.00;;
12623;SDS011;6377;42.836;23.998;2023-05-08T10:26:42;7.03;;;6.32;;
12623;SDS011;6377;42.836;23.998;2023-05-08T10:29:16;7.20;;;5.57;;
12623;SDS011;6377;42.836;23.998;2023-05-08T10:31:46;6.57;;;5.70;;
12623;SDS011;6377;42.836;23.998;2023-05-08T10:34:18;7.43;;;5.37;;
12623;SDS011;6377;42.836;23.998;2023-05-08T10:36:49;6.20;;;5.60;;
12623;SDS011;6377;42.836;23.998;2023-05-08T10:39:18;7.13;;;5.73;;
12623;SDS011;6377;42.836;23.998;2023-05-08T10:41:46;8.60;;;7.27;;
12623;SDS011;6377;42.836;23.998;2023-05-08T10:44:15;6.77;;;6.07;;
12623;SDS011;6377;42.836;23.998;2023-05-08T10:46:45;7.53;;;6.73;;
12623;SDS011;6377;42.836;23.998;2023-05-08T10:49:18;7.22;;;5.65;;
12623;SDS011;6377;42.836;23.998;2023-05-08T10:51:55;6.80;;;5.82;;
12623;SDS011;6377;42.836;23.998;2023-05-08T10:54:35;6.40;;;5.10;;
12623;SDS011;6377;42.836;23.998;2023-05-08T10:57:13;5.55;;;5.05;;
12623;SDS011;6377;42.836;23.998;2023-05-08T10:59:43;7.40;;;5.45;;
12623;SDS011;6377;42.836;23.998;2023-05-08T11:02:11;8.70;;;7.80;;
12623;SDS011;6377;42.836;23.998;2023-05-08T11:04:39;10.40;;;8.68;;
12623;SDS011;6377;42.836;23.998;2023-05-08T11:07:08;8.10;;;7.20;;
12623;SDS011;6377;42.836;23.998;2023-05-08T11:09:45;6.77;;;6.07;;
12623;SDS011;6377;42.836;23.998;2023-05-08T11:12:19;7.60;;;6.28;;
12623;SDS011;6377;42.836;23.998;2023-05-08T11:14:56;7.88;;;6.95;;
12623;SDS011;6377;42.836;23.998;2023-05-08T11:17:27;6.60;;;6.00;;
12623;SDS011;6377;42.836;23.998;2023-05-08T11:19:55;7.88;;;6.68;;
12623;SDS011;6377;42.836;23.998;2023-05-08T11:22:26;8.47;;;6.60;;
12623;SDS011;6377;42.836;23.998;2023-05-08T11:24:58;6.97;;;6.13;;
12623;SDS011;6377;42.836;23.998;2023-05-08T11:27:30;9.83;;;5.93;;
12623;SDS011;6377;42.836;23.998;2023-05-08T11:30:17;9.23;;;5.37;;
12623;SDS011;6377;42.836;23.998;2023-05-08T11:32:58;10.03;;;6.17;;
12623;SDS011;6377;42.836;23.998;2023-05-08T11:35:43;6.60;;;6.00;;
12623;SDS011;6377;42.836;23.998;2023-05-08T11:38:17;7.20;;;5.50;;
12623;SDS011;6377;42.836;23.998;2023-05-08T11:43:38;7.00;;;5.83;;
12623;SDS011;6377;42.836;23.998;2023-05-08T11:46:24;7.53;;;5.87;;
12623;SDS011;6377;42.836;23.998;2023-05-08T11:49:04;8.55;;;5.72;;
12623;SDS011;6377;42.836;23.998;2023-05-08T11:51:34;8.00;;;5.60;;
12623;SDS011;6377;42.836;23.998;2023-05-08T11:54:04;6.40;;;5.45;;
12623;SDS011;6377;42.836;23.998;2023-05-08T11:56:31;9.10;;;6.88;;
12623;SDS011;6377;42.836;23.998;2023-05-08T11:59:02;7.37;;;5.77;;
12623;SDS011;6377;42.836;23.998;2023-05-08T12:01:30;10.30;;;5.70;;
12623;SDS011;6377;42.836;23.998;2023-05-08T12:04:02;10.13;;;5.90;;
12623;SDS011;6377;42.836;23.998;2023-05-08T12:06:30;6.27;;;5.63;;
12623;SDS011;6377;42.836;23.998;2023-05-08T12:08:58;7.70;;;5.83;;
12623;SDS011;6377;42.836;23.998;2023-05-08T12:11:27;6.83;;;5.23;;
12623;SDS011;6377;42.836;23.998;2023-05-08T12:13:54;8.37;;;6.03;;
12623;SDS011;6377;42.836;23.998;2023-05-08T12:16:21;6.03;;;5.43;;
12623;SDS011;6377;42.836;23.998;2023-05-08T12:18:49;6.97;;;5.70;;
12623;SDS011;6377;42.836;23.998;2023-05-08T12:21:18;6.87;;;5.07;;
12623;SDS011;6377;42.836;23.998;2023-05-08T12:23:47;6.83;;;5.77;;
12623;SDS011;6377;42.836;23.998;2023-05-08T12:26:14;10.23;;;5.70;;
12623;SDS011;6377;42.836;23.998;2023-05-08T12:28:44;7.80;;;5.90;;
12623;SDS011;6377;42.836;23.998;2023-05-08T12:31:12;10.40;;;5.93;;
12623;SDS011;6377;42.836;23.998;2023-05-08T12:33:40;5.87;;;5.00;;
12623;SDS011;6377;42.836;23.998;2023-05-08T12:36:08;8.83;;;5.40;;
12623;SDS011;6377;42.836;23.998;2023-05-08T12:38:36;8.20;;;5.50;;
12623;SDS011;6377;42.836;23.998;2023-05-08T12:41:03;8.67;;;5.23;;
12623;SDS011;6377;42.836;23.998;2023-05-08T12:43:33;6.17;;;5.33;;
12623;SDS011;6377;42.836;23.998;2023-05-08T12:46:02;7.30;;;6.50;;
12623;SDS011;6377;42.836;23.998;2023-05-08T12:48:30;6.77;;;5.10;;
12623;SDS011;6377;42.836;23.998;2023-05-08T12:51:00;7.30;;;5.37;;
12623;SDS011;6377;42.836;23.998;2023-05-08T12:53:29;8.17;;;6.60;;
12623;SDS011;6377;42.836;23.998;2023-05-08T12:56:00;6.07;;;5.07;;
12623;SDS011;6377;42.836;23.998;2023-05-08T12:58:29;7.00;;;5.30;;
12623;SDS011;6377;42.836;23.998;2023-05-08T13:01:05;9.67;;;4.97;;
12623;SDS011;6377;42.836;23.998;2023-05-08T13:03:36;7.20;;;5.27;;
12623;SDS011;6377;42.836;23.998;2023-05-08T13:06:03;7.30;;;5.37;;
12623;SDS011;6377;42.836;23.998;2023-05-08T13:08:31;5.50;;;4.67;;
12623;SDS011;6377;42.836;23.998;2023-05-08T13:11:01;6.77;;;5.20;;
12623;SDS011;6377;42.836;23.998;2023-05-08T13:13:31;6.20;;;4.80;;
12623;SDS011;6377;42.836;23.998;2023-05-08T13:16:00;9.17;;;5.20;;
12623;SDS011;6377;42.836;23.998;2023-05-08T13:18:30;9.73;;;6.23;;
12623;SDS011;6377;42.836;23.998;2023-05-08T13:21:00;7.87;;;5.73;;
12623;SDS011;6377;42.836;23.998;2023-05-08T13:23:27;10.00;;;7.07;;
12623;SDS011;6377;42.836;23.998;2023-05-08T13:25:55;8.37;;;6.37;;
12623;SDS011;6377;42.836;23.998;2023-05-08T13:28:22;10.67;;;7.07;;
12623;SDS011;6377;42.836;23.998;2023-05-08T13:30:49;7.57;;;6.60;;
12623;SDS011;6377;42.836;23.998;2023-05-08T13:33:16;7.43;;;5.47;;
12623;SDS011;6377;42.836;23.998;2023-05-08T13:35:45;8.70;;;6.70;;
12623;SDS011;6377;42.836;23.998;2023-05-08T13:38:13;9.17;;;6.63;;
12623;SDS011;6377;42.836;23.998;2023-05-08T13:40:41;6.93;;;6.00;;
12623;SDS011;6377;42.836;23.998;2023-05-08T13:43:08;7.53;;;5.93;;
12623;SDS011;6377;42.836;23.998;2023-05-08T13:45:35;9.30;;;7.50;;
12623;SDS011;6377;42.836;23.998;2023-05-08T13:48:03;12.37;;;9.20;;
12623;SDS011;6377;42.836;23.998;2023-05-08T13:50:30;10.90;;;8.17;;
12623;SDS011;6377;42.836;23.998;2023-05-08T13:52:59;13.90;;;9.87;;
12623;SDS011;6377;42.836;23.998;2023-05-08T13:55:26;11.47;;;8.00;;
12623;SDS011;6377;42.836;23.998;2023-05-08T13:57:53;10.73;;;8.47;;
12623;SDS011;6377;42.836;23.998;2023-05-08T14:00:20;11.77;;;9.47;;
12623;SDS011;6377;42.836;23.998;2023-05-08T14:02:48;12.00;;;8.17;;
12623;SDS011;6377;42.836;23.998;2023-05-08T14:05:15;10.10;;;8.33;;
12623;SDS011;6377;42.836;23.998;2023-05-08T14:07:42;8.63;;;7.73;;
12623;SDS011;6377;42.836;23.998;2023-05-08T14:10:11;10.83;;;8.30;;
12623;SDS011;6377;42.836;23.998;2023-05-08T14:12:41;12.30;;;8.17;;
12623;SDS011;6377;42.836;23.998;2023-05-08T14:15:08;10.27;;;8.10;;
12623;SDS011;6377;42.836;23.998;2023-05-08T14:17:36;12.50;;;10.10;;
12623;SDS011;6377;42.836;23.998;2023-05-08T14:20:03;8.73;;;7.73;;
12623;SDS011;6377;42.836;23.998;2023-05-08T14:22:31;10.40;;;8.63;;
12623;SDS011;6377;42.836;23.998;2023-05-08T14:24:59;10.13;;;7.20;;
12623;SDS011;6377;42.836;23.998;2023-05-08T14:27:27;8.23;;;7.33;;
12623;SDS011;6377;42.836;23.998;2023-05-08T14:29:54;8.73;;;6.20;;
12623;SDS011;6377;42.836;23.998;2023-05-08T14:32:22;8.33;;;6.70;;
12623;SDS011;6377;42.836;23.998;2023-05-08T14:34:49;7.00;;;6.30;;
12623;SDS011;6377;42.836;23.998;2023-05-08T14:37:16;8.87;;;6.37;;
12623;SDS011;6377;42.836;23.998;2023-05-08T14:39:43;7.67;;;6.67;;
12623;SDS011;6377;42.836;23.998;2023-05-08T14:42:11;9.67;;;6.40;;
12623;SDS011;6377;42.836;23.998;2023-05-08T14:44:39;10.33;;;6.17;;
12623;SDS011;6377;42.836;23.998;2023-05-08T14:47:06;8.63;;;6.73;;
12623;SDS011;6377;42.836;23.998;2023-05-08T14:49:33;7.77;;;6.90;;
12623;SDS011;6377;42.836;23.998;2023-05-08T14:52:04;11.00;;;7.07;;
12623;SDS011;6377;42.836;23.998;2023-05-08T14:54:31;9.80;;;7.30;;
12623;SDS011;6377;42.836;23.998;2023-05-08T14:56:58;7.13;;;6.30;;
12623;SDS011;6377;42.836;23.998;2023-05-08T14:59:26;10.33;;;7.63;;
12623;SDS011;6377;42.836;23.998;2023-05-08T15:01:54;16.37;;;10.63;;
12623;SDS011;6377;42.836;23.998;2023-05-08T15:04:22;12.47;;;9.50;;